createdAt,value
2018-12-31T00:02:56.827Z,3.85
2018-12-31T00:08:21.221Z,3.75
2018-12-31T00:11:03.312Z,2.80
2018-12-31T00:13:44.698Z,4.42
2018-12-31T00:19:09.179Z,3.37
2018-12-31T00:24:33.912Z,3.52
2018-12-31T00:29:57.971Z,3.77
2018-12-31T00:35:22.599Z,3.35
2018-12-31T00:40:47.559Z,2.62
2018-12-31T00:46:11.804Z,2.77
2018-12-31T00:51:35.489Z,2.00
2018-12-31T00:56:59.669Z,2.60
2018-12-31T01:02:27.370Z,3.33
2018-12-31T01:07:51.073Z,2.65
2018-12-31T01:13:15.561Z,2.17
2018-12-31T01:18:49.492Z,3.10
2018-12-31T01:24:14.415Z,2.58
2018-12-31T01:29:38.536Z,2.50
2018-12-31T01:35:02.751Z,3.45
2018-12-31T01:40:30.087Z,1.98
2018-12-31T01:45:54.001Z,2.27
2018-12-31T01:51:18.086Z,2.70
2018-12-31T01:56:42.688Z,2.50
2018-12-31T02:02:07.111Z,2.17
2018-12-31T02:07:37.413Z,2.58
2018-12-31T02:13:01.444Z,3.10
2018-12-31T02:18:25.659Z,3.33
2018-12-31T02:23:49.925Z,4.53
2018-12-31T02:29:13.346Z,2.65
2018-12-31T02:34:37.608Z,3.02
2018-12-31T02:40:02.138Z,2.70
2018-12-31T02:45:26.687Z,2.62
2018-12-31T02:50:50.391Z,3.08
2018-12-31T02:56:14.928Z,3.70
2018-12-31T03:01:39.262Z,2.40
2018-12-31T03:07:04.059Z,2.30
2018-12-31T03:12:28.071Z,2.98
2018-12-31T03:17:55.684Z,3.22
2018-12-31T03:23:19.880Z,2.95
2018-12-31T03:28:44.048Z,2.50
2018-12-31T03:34:11.637Z,2.40
2018-12-31T03:39:35.373Z,3.05
2018-12-31T03:45:02.384Z,2.40
2018-12-31T03:50:26.940Z,2.58
2018-12-31T03:55:51.373Z,2.58
2018-12-31T04:01:15.075Z,2.70
2018-12-31T04:06:39.620Z,3.22
2018-12-31T04:12:03.299Z,4.85
2018-12-31T04:17:26.753Z,3.10
2018-12-31T04:22:50.251Z,3.83
2018-12-31T04:28:14.630Z,4.87
2018-12-31T04:33:39.314Z,3.77
2018-12-31T04:39:02.946Z,4.55
2018-12-31T04:44:27.482Z,3.00
2018-12-31T04:49:51.774Z,5.08
2018-12-31T04:55:15.788Z,3.30
2018-12-31T05:00:40.182Z,4.05
2018-12-31T05:06:04.748Z,3.12
2018-12-31T05:11:28.766Z,3.25
2018-12-31T05:16:53.141Z,4.05
2018-12-31T05:22:16.877Z,4.62
2018-12-31T05:25:00.023Z,3.95
2018-12-31T05:27:41.694Z,3.60
2018-12-31T05:33:05.788Z,3.85
2018-12-31T05:38:35.262Z,3.87
2018-12-31T05:44:02.990Z,4.15
2018-12-31T05:49:26.288Z,4.12
2018-12-31T05:54:50.600Z,3.83
2018-12-31T06:00:15.000Z,4.22
2018-12-31T06:05:39.507Z,3.90
2018-12-31T06:11:02.990Z,3.58
2018-12-31T06:16:27.376Z,4.47
2018-12-31T06:21:57.702Z,4.90
2018-12-31T06:27:25.103Z,5.00
2018-12-31T06:32:49.311Z,5.10
2018-12-31T06:38:13.942Z,5.90
2018-12-31T06:43:37.956Z,5.67
2018-12-31T06:49:02.367Z,5.75
2018-12-31T06:54:26.915Z,6.62
2018-12-31T07:05:34.286Z,7.28
2018-12-31T07:10:58.359Z,7.72
2018-12-31T07:16:30.932Z,8.20
2018-12-31T07:22:01.980Z,7.47
2018-12-31T07:24:50.700Z,7.40
2018-12-31T07:27:34.923Z,9.50
2018-12-31T07:33:02.258Z,9.03
2018-12-31T07:38:26.624Z,7.00
2018-12-31T07:43:50.839Z,7.35
2018-12-31T07:49:18.277Z,7.50
2018-12-31T07:54:42.424Z,8.03
2018-12-31T08:00:06.509Z,8.10
2018-12-31T08:05:30.987Z,7.28
2018-12-31T08:10:55.164Z,8.05
2018-12-31T08:16:19.338Z,7.70
2018-12-31T08:21:43.411Z,6.62
2018-12-31T08:24:25.603Z,6.65
2018-12-31T08:27:10.437Z,7.28
2018-12-31T08:32:34.492Z,7.42
2018-12-31T08:37:59.872Z,8.95
2018-12-31T08:43:24.619Z,7.35
2018-12-31T08:48:49.179Z,6.35
2018-12-31T08:51:31.308Z,6.28
2018-12-31T08:54:12.452Z,5.75
2018-12-31T08:59:36.962Z,5.53
2018-12-31T09:05:00.391Z,5.30
2018-12-31T09:10:24.049Z,6.17
2018-12-31T09:15:48.295Z,4.55
2018-12-31T09:21:12.072Z,6.10
2018-12-31T09:26:36.283Z,6.30
2018-12-31T09:32:00.952Z,5.83
2018-12-31T09:37:24.948Z,5.35
2018-12-31T09:42:49.366Z,6.55
2018-12-31T09:48:13.687Z,5.70
2018-12-31T09:53:38.150Z,6.95
2018-12-31T09:59:02.396Z,5.72
2018-12-31T10:04:26.584Z,4.87
2018-12-31T10:09:51.254Z,5.53
2018-12-31T10:15:15.153Z,5.60
2018-12-31T10:20:39.351Z,4.80
2018-12-31T10:26:06.628Z,5.40
2018-12-31T10:31:29.934Z,7.22
2018-12-31T10:36:54.487Z,6.12
2018-12-31T10:42:18.821Z,6.60
2018-12-31T10:45:07.245Z,4.95
2018-12-31T10:47:51.714Z,5.70
2018-12-31T10:53:15.897Z,5.58
2018-12-31T10:58:40.314Z,5.12
2018-12-31T11:04:05.258Z,5.00
2018-12-31T11:09:29.418Z,4.53
2018-12-31T11:14:53.737Z,5.40
2018-12-31T11:20:18.255Z,5.15
2018-12-31T11:25:42.527Z,6.70
2018-12-31T11:31:06.596Z,7.10
2018-12-31T11:36:32.428Z,7.40
2018-12-31T11:41:58.116Z,8.33
2018-12-31T11:47:22.610Z,8.73
2018-12-31T11:52:49.275Z,8.55
2018-12-31T11:58:13.741Z,7.87
2018-12-31T12:03:37.983Z,7.85
2018-12-31T12:09:01.704Z,6.87
2018-12-31T12:14:26.061Z,5.90
2018-12-31T12:19:53.584Z,7.00
2018-12-31T12:25:17.790Z,6.50
2018-12-31T12:30:50.239Z,6.90
2018-12-31T12:33:32.399Z,6.00
2018-12-31T12:36:17.003Z,6.55
2018-12-31T12:41:41.303Z,6.85
2018-12-31T12:47:06.071Z,5.58
2018-12-31T12:52:31.373Z,7.12
2018-12-31T12:57:58.188Z,6.78
2018-12-31T13:00:43.653Z,6.55
2018-12-31T13:03:25.068Z,6.37
2018-12-31T13:08:48.531Z,8.35
2018-12-31T13:19:36.669Z,8.93
2018-12-31T13:25:03.926Z,12.58
2018-12-31T13:30:27.236Z,9.30
2018-12-31T13:35:51.646Z,11.43
2018-12-31T13:41:15.700Z,9.48
2018-12-31T13:46:40.847Z,6.95
2018-12-31T13:52:05.288Z,7.72
2018-12-31T13:57:29.501Z,5.62
2018-12-31T14:03:01.790Z,5.60
2018-12-31T14:08:27.325Z,5.70
2018-12-31T14:13:51.567Z,8.50
2018-12-31T14:19:15.588Z,7.97
2018-12-31T14:24:39.948Z,8.40
2018-12-31T14:30:07.400Z,9.70
2018-12-31T14:35:31.501Z,6.85
2018-12-31T14:40:55.932Z,9.00
2018-12-31T14:46:20.399Z,8.18
2018-12-31T14:51:44.487Z,7.85
2018-12-31T14:57:08.837Z,7.80
2018-12-31T15:02:33.326Z,7.70
2018-12-31T15:07:57.848Z,9.33
2018-12-31T15:13:25.681Z,8.18
2018-12-31T15:18:50.062Z,10.30
2018-12-31T15:24:14.002Z,11.30
2018-12-31T15:29:38.178Z,9.43
2018-12-31T15:35:01.998Z,8.83
2018-12-31T15:40:26.243Z,8.00
2018-12-31T15:45:49.519Z,7.75
2018-12-31T15:51:13.929Z,7.28
2018-12-31T15:56:38.460Z,9.75
2018-12-31T16:02:04.915Z,10.28
2018-12-31T16:07:28.518Z,7.78
2018-12-31T16:12:54.922Z,7.15
2018-12-31T16:18:19.413Z,7.05
2018-12-31T16:23:43.629Z,7.28
2018-12-31T16:29:07.840Z,7.28
2018-12-31T16:34:32.207Z,8.18
2018-12-31T16:39:56.615Z,9.25
2018-12-31T16:42:38.949Z,9.18
2018-12-31T16:45:20.144Z,8.88
2018-12-31T16:50:44.614Z,8.00
2018-12-31T16:56:15.109Z,7.95
2018-12-31T17:01:39.511Z,8.45
2018-12-31T17:07:03.968Z,8.10
2018-12-31T17:12:34.676Z,10.18
2018-12-31T17:17:58.963Z,9.30
2018-12-31T17:23:25.931Z,10.10
2018-12-31T17:28:50.117Z,10.80
2018-12-31T17:34:15.435Z,13.55
2018-12-31T17:37:03.775Z,10.65
2018-12-31T17:39:45.382Z,15.45
2018-12-31T17:45:09.443Z,15.23
2018-12-31T17:50:33.037Z,21.35
2018-12-31T17:55:56.246Z,27.73
2018-12-31T18:01:20.501Z,39.90
2018-12-31T18:04:02.564Z,39.48
2018-12-31T18:06:44.007Z,40.05
2018-12-31T18:12:11.229Z,40.30
2018-12-31T18:17:23.904Z,32.88
2018-12-31T18:19:53.741Z,34.27
2018-12-31T18:22:23.446Z,36.30
2018-12-31T18:24:53.199Z,38.48
2018-12-31T18:27:22.970Z,31.00
2018-12-31T18:29:52.661Z,37.67
2018-12-31T18:32:22.397Z,36.30
2018-12-31T18:35:11.098Z,33.42
2018-12-31T18:37:55.219Z,37.33
2018-12-31T18:43:19.508Z,35.17
2018-12-31T18:46:05.018Z,36.98
2018-12-31T18:48:46.174Z,37.23
2018-12-31T18:54:09.792Z,33.70
2018-12-31T18:59:34.332Z,33.10
2018-12-31T19:04:58.517Z,34.83
2018-12-31T19:10:22.625Z,32.42
2018-12-31T19:15:47.252Z,37.13
2018-12-31T19:21:11.783Z,28.85
2018-12-31T19:26:36.170Z,32.58
2018-12-31T19:31:59.710Z,33.38
2018-12-31T19:37:24.204Z,31.27
2018-12-31T19:42:48.676Z,30.10
2018-12-31T19:48:13.265Z,26.82
2018-12-31T19:53:40.500Z,26.68
2018-12-31T19:59:07.795Z,26.30
2018-12-31T20:04:32.189Z,35.88
2018-12-31T20:09:56.703Z,41.65
2018-12-31T20:15:24.199Z,27.70
2018-12-31T20:20:48.541Z,24.15
2018-12-31T20:26:19.052Z,27.13
2018-12-31T20:31:43.334Z,28.62
2018-12-31T20:37:06.819Z,29.50
2018-12-31T20:42:30.358Z,30.27
2018-12-31T20:48:01.509Z,28.90
2018-12-31T20:53:20.938Z,30.88
2018-12-31T20:58:48.615Z,32.38
2018-12-31T21:04:16.005Z,32.23
2018-12-31T21:09:40.606Z,30.08
2018-12-31T21:15:04.980Z,28.12
2018-12-31T21:20:29.059Z,35.75
2018-12-31T21:25:53.586Z,32.35
2018-12-31T21:31:23.472Z,34.80
2018-12-31T21:36:47.465Z,35.20
2018-12-31T21:42:11.483Z,34.27
2018-12-31T21:47:37.940Z,28.73
2018-12-31T21:53:02.393Z,29.35
2018-12-31T21:58:26.666Z,32.95
2018-12-31T22:03:51.235Z,31.62
2018-12-31T22:09:15.528Z,32.55
2018-12-31T22:14:39.743Z,34.65
2018-12-31T22:20:04.071Z,38.23
2018-12-31T22:25:28.509Z,35.73
2018-12-31T22:30:52.932Z,36.65
2018-12-31T22:36:17.737Z,42.08
2018-12-31T22:41:41.955Z,36.50
2018-12-31T22:47:06.200Z,36.50
2018-12-31T22:52:38.304Z,36.25
2018-12-31T22:58:02.619Z,41.48
2018-12-31T23:03:26.760Z,41.15
2018-12-31T23:08:51.115Z,71.65
2018-12-31T23:14:15.532Z,114.72
2018-12-31T23:19:41.931Z,104.60
2018-12-31T23:25:09.283Z,151.72
2018-12-31T23:30:33.331Z,169.47
2018-12-31T23:35:56.877Z,138.95
2018-12-31T23:41:27.435Z,124.70
2018-12-31T23:46:51.604Z,106.45
2018-12-31T23:52:15.909Z,78.33
2018-12-31T23:57:42.459Z,73.50
